createdAt,value
2022-12-03T00:00:32.677Z,13.33
2022-12-03T00:02:59.435Z,13.43
2022-12-03T00:05:26.321Z,12.13
2022-12-03T00:07:52.984Z,13.30
2022-12-03T00:10:19.965Z,13.20
2022-12-03T00:12:46.869Z,12.70
2022-12-03T00:15:13.797Z,12.90
2022-12-03T00:17:40.597Z,13.67
2022-12-03T00:20:08.887Z,13.33
2022-12-03T00:22:35.483Z,13.27
2022-12-03T00:25:02.179Z,12.73
2022-12-03T00:27:28.834Z,12.83
2022-12-03T00:29:55.500Z,13.53
2022-12-03T00:32:22.200Z,12.43
2022-12-03T00:34:48.818Z,13.53
2022-12-03T00:37:15.700Z,13.10
2022-12-03T00:39:42.343Z,12.10
2022-12-03T00:42:09.209Z,12.77
2022-12-03T00:44:36.105Z,13.10
2022-12-03T00:47:02.857Z,11.17
2022-12-03T00:49:29.678Z,13.57
2022-12-03T00:51:56.320Z,12.90
2022-12-03T00:54:26.966Z,12.07
2022-12-03T00:56:58.325Z,13.17
2022-12-03T00:59:25.034Z,13.07
2022-12-03T01:01:51.770Z,11.97
2022-12-03T01:04:18.619Z,12.67
2022-12-03T01:06:45.282Z,12.17
2022-12-03T01:09:11.953Z,11.43
2022-12-03T01:11:38.713Z,11.77
2022-12-03T01:14:16.663Z,11.77
2022-12-03T01:16:43.549Z,12.03
2022-12-03T01:19:15.693Z,11.60
2022-12-03T01:21:43.825Z,12.03
2022-12-03T01:24:10.694Z,10.90
2022-12-03T01:26:37.372Z,10.33
2022-12-03T01:29:04.571Z,11.57
2022-12-03T01:31:49.827Z,11.67
2022-12-03T01:34:16.498Z,10.93
2022-12-03T01:36:43.196Z,10.67
2022-12-03T01:39:09.900Z,11.43
2022-12-03T01:41:37.482Z,12.40
2022-12-03T01:44:14.552Z,11.90
2022-12-03T01:46:42.721Z,12.07
2022-12-03T01:49:19.054Z,11.57
2022-12-03T01:51:46.867Z,12.27
2022-12-03T01:54:18.509Z,11.90
2022-12-03T01:56:46.135Z,12.73
2022-12-03T01:59:18.593Z,11.40
2022-12-03T02:01:45.401Z,12.90
2022-12-03T02:04:14.256Z,12.33
2022-12-03T02:06:42.200Z,12.73
2022-12-03T02:09:13.632Z,11.53
2022-12-03T02:11:46.967Z,11.30
2022-12-03T02:14:19.501Z,12.70
2022-12-03T02:16:46.545Z,12.37
2022-12-03T02:19:25.626Z,12.87
2022-12-03T02:22:05.680Z,12.63
2022-12-03T02:24:55.490Z,12.10
2022-12-03T02:27:23.354Z,12.17
2022-12-03T02:29:50.941Z,11.80
2022-12-03T02:32:20.045Z,11.67
2022-12-03T02:34:47.320Z,12.73
2022-12-03T02:37:24.581Z,13.30
2022-12-03T02:39:54.994Z,12.70
2022-12-03T02:42:37.438Z,12.47
2022-12-03T02:45:17.557Z,12.37
2022-12-03T02:47:51.585Z,12.73
2022-12-03T02:50:23.624Z,12.90
2022-12-03T02:52:53.198Z,13.17
2022-12-03T02:55:20.693Z,12.77
2022-12-03T02:57:49.314Z,12.47
2022-12-03T03:00:17.349Z,15.23
2022-12-03T03:02:46.284Z,13.43
2022-12-03T03:05:14.819Z,13.03
2022-12-03T03:07:42.656Z,12.53
2022-12-03T03:10:14.698Z,13.13
2022-12-03T03:12:41.553Z,12.27
2022-12-03T03:15:10.516Z,13.50
2022-12-03T03:17:37.992Z,13.63
2022-12-03T03:20:06.566Z,14.30
2022-12-03T03:22:35.659Z,13.97
2022-12-03T03:25:03.210Z,13.50
2022-12-03T03:27:31.201Z,13.43
2022-12-03T03:29:58.798Z,13.23
2022-12-03T03:32:28.350Z,13.27
2022-12-03T03:34:56.060Z,12.63
2022-12-03T03:37:23.988Z,14.23
2022-12-03T03:39:51.315Z,13.50
2022-12-03T03:42:18.616Z,14.03
2022-12-03T03:44:45.480Z,14.10
2022-12-03T03:47:13.117Z,14.37
2022-12-03T03:49:40.445Z,13.97
2022-12-03T03:52:10.594Z,13.60
2022-12-03T03:54:39.322Z,14.30
2022-12-03T03:57:06.275Z,13.67
2022-12-03T03:59:33.404Z,14.00
2022-12-03T04:02:00.199Z,13.33
2022-12-03T04:04:31.291Z,14.90
2022-12-03T04:06:58.128Z,13.97
2022-12-03T04:09:24.786Z,14.20
2022-12-03T04:12:23.606Z,14.70
2022-12-03T04:14:50.358Z,15.10
2022-12-03T04:17:17.128Z,15.03
2022-12-03T04:19:43.876Z,14.33
2022-12-03T04:22:29.241Z,15.67
2022-12-03T04:25:15.963Z,14.63
2022-12-03T04:28:01.114Z,14.80
2022-12-03T04:30:27.967Z,14.43
2022-12-03T04:33:13.296Z,14.13
2022-12-03T04:35:43.044Z,14.97
2022-12-03T04:38:15.559Z,15.30
2022-12-03T04:41:00.838Z,16.13
2022-12-03T04:43:28.520Z,15.93
2022-12-03T04:45:55.530Z,15.40
2022-12-03T04:48:22.309Z,15.70
2022-12-03T04:50:49.096Z,15.23
2022-12-03T04:53:16.099Z,15.40
2022-12-03T04:55:42.736Z,15.90
2022-12-03T04:58:10.002Z,16.03
2022-12-03T05:00:36.997Z,16.60
2022-12-03T05:03:03.799Z,15.63
2022-12-03T05:05:30.762Z,17.20
2022-12-03T05:07:57.538Z,17.43
2022-12-03T05:10:24.259Z,15.43
2022-12-03T05:12:50.915Z,16.57
2022-12-03T05:15:17.692Z,16.97
2022-12-03T05:17:44.300Z,16.90
2022-12-03T05:20:30.160Z,17.20
2022-12-03T05:22:56.807Z,16.73
2022-12-03T05:25:23.412Z,17.00
2022-12-03T05:27:50.168Z,15.17
2022-12-03T05:30:17.018Z,17.33
2022-12-03T05:32:43.808Z,17.53
2022-12-03T05:35:11.332Z,16.57
2022-12-03T05:37:38.187Z,15.60
2022-12-03T05:40:05.663Z,14.57
2022-12-03T05:42:50.907Z,16.47
2022-12-03T05:45:18.590Z,17.03
2022-12-03T05:47:45.301Z,17.73
2022-12-03T05:50:12.151Z,17.17
2022-12-03T05:52:38.830Z,16.73
2022-12-03T05:55:06.577Z,18.93
2022-12-03T05:57:33.474Z,17.40
2022-12-03T06:00:00.132Z,18.23
2022-12-03T06:02:26.895Z,17.40
2022-12-03T06:04:54.115Z,18.17
2022-12-03T06:07:28.943Z,18.83
2022-12-03T06:09:56.085Z,18.23
2022-12-03T06:12:22.871Z,18.93
2022-12-03T06:14:49.694Z,19.47
2022-12-03T06:17:16.435Z,17.70
2022-12-03T06:19:43.144Z,19.33
2022-12-03T06:22:09.833Z,17.03
2022-12-03T06:24:36.596Z,18.73
2022-12-03T06:27:03.791Z,19.00
2022-12-03T06:29:30.463Z,18.67
2022-12-03T06:31:57.175Z,17.77
2022-12-03T06:34:23.845Z,19.33
2022-12-03T06:36:50.530Z,17.90
2022-12-03T06:39:18.001Z,18.67
2022-12-03T06:41:44.968Z,19.80
2022-12-03T06:44:11.767Z,19.37
2022-12-03T06:46:38.579Z,19.37
2022-12-03T06:49:05.608Z,18.17
2022-12-03T06:51:32.234Z,18.93
2022-12-03T06:53:58.989Z,19.73
2022-12-03T06:56:28.464Z,18.77
2022-12-03T06:58:59.613Z,19.40
2022-12-03T07:01:26.783Z,19.27
2022-12-03T07:03:53.658Z,18.57
2022-12-03T07:06:20.539Z,19.63
2022-12-03T07:08:47.225Z,19.47
2022-12-03T07:11:31.936Z,20.70
2022-12-03T07:14:05.398Z,19.30
2022-12-03T07:16:35.087Z,19.23
2022-12-03T07:19:02.215Z,19.40
2022-12-03T07:21:28.982Z,19.90
2022-12-03T07:23:55.660Z,19.47
2022-12-03T07:26:22.336Z,19.40
2022-12-03T07:28:49.001Z,20.67
2022-12-03T07:31:16.002Z,20.47
2022-12-03T07:33:42.770Z,20.73
2022-12-03T07:36:10.004Z,20.03
2022-12-03T07:38:36.716Z,20.27
2022-12-03T07:41:03.635Z,19.63
2022-12-03T07:43:30.262Z,20.53
2022-12-03T07:45:56.914Z,19.63
2022-12-03T07:48:23.819Z,20.70
2022-12-03T07:50:50.549Z,20.77
2022-12-03T07:53:17.392Z,20.10
2022-12-03T07:55:44.079Z,18.53
2022-12-03T07:58:10.777Z,20.63
2022-12-03T08:00:37.544Z,19.87
2022-12-03T08:04:15.568Z,18.93
2022-12-03T08:06:00.230Z,19.43
2022-12-03T08:08:26.863Z,19.43
2022-12-03T08:10:53.594Z,19.23
2022-12-03T08:13:20.261Z,19.60
2022-12-03T08:15:47.184Z,19.33
2022-12-03T08:18:20.048Z,19.70
2022-12-03T08:20:49.114Z,20.23
2022-12-03T08:23:21.813Z,19.37
2022-12-03T08:25:50.795Z,20.13
2022-12-03T08:28:19.585Z,19.20
2022-12-03T08:31:03.119Z,19.30
2022-12-03T08:33:35.519Z,19.97
2022-12-03T08:36:12.764Z,19.03
2022-12-03T08:38:40.201Z,18.40
2022-12-03T08:41:15.572Z,18.07
2022-12-03T08:43:43.777Z,18.57
2022-12-03T08:46:19.019Z,18.57
2022-12-03T08:48:48.957Z,18.70
2022-12-03T08:51:21.100Z,18.97
2022-12-03T08:53:49.840Z,17.13
2022-12-03T08:56:23.999Z,17.57
2022-12-03T08:58:55.984Z,17.27
2022-12-03T09:01:37.041Z,17.40
2022-12-03T09:04:20.755Z,16.47
2022-12-03T09:06:47.752Z,16.57
2022-12-03T09:09:14.441Z,17.20
2022-12-03T09:11:43.112Z,16.80
2022-12-03T09:14:15.111Z,17.43
2022-12-03T09:16:44.931Z,17.77
2022-12-03T09:19:11.692Z,16.87
2022-12-03T09:21:38.369Z,17.43
2022-12-03T09:24:05.309Z,17.13
2022-12-03T09:26:32.195Z,16.37
2022-12-03T09:28:58.861Z,16.57
2022-12-03T09:31:25.664Z,17.13
2022-12-03T09:33:52.372Z,16.47
2022-12-03T09:36:19.009Z,17.17
2022-12-03T09:38:47.869Z,16.30
2022-12-03T09:41:16.246Z,16.43
2022-12-03T09:44:03.405Z,15.63
2022-12-03T09:46:30.678Z,15.80
2022-12-03T09:48:57.796Z,16.27
2022-12-03T09:51:30.213Z,16.20
2022-12-03T09:54:05.645Z,16.97
2022-12-03T09:56:34.215Z,16.20
2022-12-03T09:59:01.253Z,16.63
2022-12-03T10:01:30.568Z,15.03
2022-12-03T10:03:58.539Z,15.80
2022-12-03T10:06:25.269Z,16.83
2022-12-03T10:08:54.725Z,18.93
2022-12-03T10:11:24.624Z,17.03
2022-12-03T10:13:52.626Z,15.77
2022-12-03T10:16:21.078Z,16.83
2022-12-03T10:18:52.350Z,16.33
2022-12-03T10:21:20.775Z,16.40
2022-12-03T10:23:50.810Z,16.83
2022-12-03T10:26:35.907Z,17.03
2022-12-03T10:29:02.622Z,16.70
2022-12-03T10:31:35.817Z,17.17
2022-12-03T10:36:54.998Z,16.73
2022-12-03T10:39:21.638Z,15.33
2022-12-03T10:41:49.087Z,16.40
2022-12-03T10:44:25.499Z,17.10
2022-12-03T10:47:13.509Z,15.83
2022-12-03T10:49:42.864Z,16.50
2022-12-03T10:52:25.897Z,15.73
2022-12-03T10:54:53.071Z,15.93
2022-12-03T10:57:20.010Z,16.63
2022-12-03T10:59:46.720Z,16.70
2022-12-03T11:02:22.610Z,15.90
2022-12-03T11:04:50.332Z,17.13
2022-12-03T11:07:21.582Z,16.80
2022-12-03T11:09:51.157Z,16.40
2022-12-03T11:12:21.887Z,17.63
2022-12-03T11:14:52.200Z,16.47
2022-12-03T11:17:46.262Z,16.57
2022-12-03T11:20:25.123Z,15.10
2022-12-03T11:22:54.029Z,15.40
2022-12-03T11:25:26.649Z,16.83
2022-12-03T11:28:11.843Z,16.80
2022-12-03T11:31:01.812Z,15.80
2022-12-03T11:33:33.936Z,15.90
2022-12-03T11:36:03.693Z,16.73
2022-12-03T11:38:52.318Z,16.03
2022-12-03T11:41:31.780Z,15.10
2022-12-03T11:44:04.591Z,15.93
2022-12-03T11:46:37.044Z,15.43
2022-12-03T11:49:25.613Z,16.17
2022-12-03T11:51:52.451Z,16.00
2022-12-03T11:54:21.705Z,15.73
2022-12-03T11:56:49.421Z,16.00
2022-12-03T11:59:18.111Z,16.20
2022-12-03T12:01:45.319Z,15.60
2022-12-03T12:04:37.684Z,16.93
2022-12-03T12:07:04.466Z,16.53
2022-12-03T12:09:57.276Z,15.90
2022-12-03T12:12:54.722Z,15.80
2022-12-03T12:15:41.677Z,16.93
2022-12-03T12:18:53.677Z,16.13
2022-12-03T12:21:48.270Z,16.03
2022-12-03T12:24:40.653Z,16.73
2022-12-03T12:27:10.330Z,16.50
2022-12-03T12:29:39.117Z,16.20
2022-12-03T12:32:08.866Z,15.80
2022-12-03T12:35:03.067Z,17.10
2022-12-03T12:37:47.307Z,16.30
2022-12-03T12:40:17.491Z,16.70
2022-12-03T12:43:12.611Z,16.73
2022-12-03T12:45:43.459Z,15.73
2022-12-03T12:48:10.139Z,15.87
2022-12-03T12:50:38.538Z,15.67
2022-12-03T12:53:11.456Z,15.53
2022-12-03T12:55:39.354Z,14.83
2022-12-03T12:58:15.458Z,14.67
2022-12-03T13:00:42.625Z,13.73
2022-12-03T13:03:14.112Z,15.90
2022-12-03T13:05:44.391Z,12.77
2022-12-03T13:08:21.662Z,12.50
2022-12-03T13:10:49.506Z,12.13
2022-12-03T13:13:21.492Z,11.50
2022-12-03T13:15:55.873Z,12.17
2022-12-03T13:18:27.816Z,12.57
2022-12-03T13:20:55.822Z,14.83
2022-12-03T13:23:29.616Z,13.97
2022-12-03T13:26:04.535Z,14.43
2022-12-03T13:28:36.155Z,14.60
2022-12-03T13:31:44.384Z,15.20
2022-12-03T13:34:19.985Z,13.57
2022-12-03T13:36:50.749Z,14.10
2022-12-03T13:39:47.961Z,15.00
2022-12-03T13:42:33.184Z,13.53
2022-12-03T13:45:02.506Z,14.33
2022-12-03T13:47:29.163Z,13.27
2022-12-03T13:49:58.895Z,14.93
2022-12-03T13:52:26.031Z,13.03
2022-12-03T13:54:56.161Z,14.07
2022-12-03T13:57:23.410Z,12.97
2022-12-03T13:59:50.017Z,13.27
2022-12-03T14:02:16.744Z,13.40
2022-12-03T14:04:43.429Z,13.40
2022-12-03T14:07:10.069Z,13.43
2022-12-03T14:09:36.885Z,13.30
2022-12-03T14:12:22.236Z,13.43
2022-12-03T14:14:49.037Z,12.70
2022-12-03T14:17:15.786Z,13.67
2022-12-03T14:19:43.017Z,13.20
2022-12-03T14:22:10.042Z,14.23
2022-12-03T14:24:37.644Z,13.40
2022-12-03T14:27:04.318Z,14.53
2022-12-03T14:29:30.966Z,14.17
2022-12-03T14:31:57.683Z,13.20
2022-12-03T14:34:24.688Z,14.30
2022-12-03T14:36:51.556Z,13.97
2022-12-03T14:39:18.522Z,16.00
2022-12-03T14:42:04.068Z,14.10
2022-12-03T14:44:30.797Z,14.40
2022-12-03T14:46:57.720Z,14.53
2022-12-03T14:49:24.781Z,16.13
2022-12-03T14:51:51.507Z,14.57
2022-12-03T14:54:18.388Z,14.63
2022-12-03T14:56:45.020Z,14.63
2022-12-03T14:59:11.593Z,15.00
2022-12-03T15:01:38.286Z,14.67
2022-12-03T15:04:05.663Z,14.70
2022-12-03T15:06:32.433Z,14.60
2022-12-03T15:08:59.963Z,15.07
2022-12-03T15:11:26.663Z,14.30
2022-12-03T15:13:53.351Z,15.73
2022-12-03T15:16:20.080Z,15.37
2022-12-03T15:18:46.842Z,14.13
2022-12-03T15:21:13.458Z,14.47
2022-12-03T15:23:40.039Z,15.20
2022-12-03T15:26:06.672Z,14.47
2022-12-03T15:28:33.281Z,12.67
2022-12-03T15:31:00.088Z,14.47
2022-12-03T15:33:26.870Z,14.77
2022-12-03T15:35:53.681Z,13.27
2022-12-03T15:38:20.443Z,12.93
2022-12-03T15:40:47.023Z,14.00
2022-12-03T15:43:13.685Z,14.53
2022-12-03T15:45:40.392Z,15.97
2022-12-03T15:48:07.617Z,15.60
2022-12-03T15:50:40.581Z,14.33
2022-12-03T15:53:07.345Z,14.13
2022-12-03T15:55:33.958Z,13.80
2022-12-03T15:58:00.502Z,14.13
2022-12-03T16:00:27.170Z,13.83
2022-12-03T16:02:53.797Z,15.23
2022-12-03T16:05:20.622Z,14.07
2022-12-03T16:07:47.316Z,14.93
2022-12-03T16:10:14.040Z,15.00
2022-12-03T16:12:40.760Z,15.07
2022-12-03T16:15:07.935Z,14.93
2022-12-03T16:17:34.526Z,14.67
2022-12-03T16:20:01.261Z,15.63
2022-12-03T16:22:27.818Z,14.73
2022-12-03T16:24:54.518Z,16.03
2022-12-03T16:27:25.477Z,15.07
2022-12-03T16:29:53.082Z,15.80
2022-12-03T16:32:19.915Z,15.37
2022-12-03T16:34:46.643Z,16.57
2022-12-03T16:37:13.449Z,15.47
2022-12-03T16:39:40.095Z,15.73
2022-12-03T16:42:11.785Z,15.70
2022-12-03T16:45:05.820Z,16.20
2022-12-03T16:47:34.290Z,15.93
2022-12-03T16:50:02.920Z,16.70
2022-12-03T16:52:29.527Z,16.87
2022-12-03T16:54:56.230Z,16.17
2022-12-03T16:57:22.793Z,15.10
2022-12-03T16:59:49.376Z,16.97
2022-12-03T17:02:16.085Z,16.43
2022-12-03T17:04:42.697Z,16.87
2022-12-03T17:07:09.672Z,15.70
2022-12-03T17:09:36.559Z,17.23
2022-12-03T17:12:03.259Z,16.67
2022-12-03T17:14:33.207Z,16.70
2022-12-03T17:17:00.243Z,16.50
2022-12-03T17:19:26.916Z,16.90
2022-12-03T17:21:54.122Z,16.50
2022-12-03T17:24:21.404Z,16.63
2022-12-03T17:26:48.118Z,16.30
2022-12-03T17:29:14.903Z,17.30
2022-12-03T17:31:42.462Z,18.90
2022-12-03T17:34:09.879Z,17.73
2022-12-03T17:36:36.516Z,17.03
2022-12-03T17:39:03.324Z,17.57
2022-12-03T17:41:30.139Z,17.93
2022-12-03T17:43:56.794Z,17.10
2022-12-03T17:46:23.427Z,16.97
2022-12-03T17:48:50.037Z,17.57
2022-12-03T17:51:16.651Z,18.93
2022-12-03T17:53:43.260Z,17.20
2022-12-03T17:56:09.793Z,17.10
2022-12-03T17:58:36.403Z,16.33
2022-12-03T18:01:03.513Z,18.23
2022-12-03T18:03:30.894Z,17.37
2022-12-03T18:06:12.594Z,17.20
2022-12-03T18:08:39.179Z,17.33
2022-12-03T18:11:06.113Z,17.33
2022-12-03T18:13:32.729Z,17.63
2022-12-03T18:15:59.619Z,18.33
2022-12-03T18:18:26.267Z,18.47
2022-12-03T18:20:53.575Z,18.20
2022-12-03T18:23:20.290Z,17.27
2022-12-03T18:25:47.094Z,17.43
2022-12-03T18:28:13.747Z,19.20
2022-12-03T18:30:40.345Z,18.23
2022-12-03T18:33:07.007Z,18.37
2022-12-03T18:35:33.680Z,19.43
2022-12-03T18:38:00.474Z,17.40
2022-12-03T18:40:27.307Z,19.07
2022-12-03T18:42:55.241Z,17.57
2022-12-03T18:45:21.879Z,16.67
2022-12-03T18:47:48.641Z,17.00
2022-12-03T18:50:15.323Z,18.57
2022-12-03T18:52:42.076Z,18.20
2022-12-03T18:55:13.647Z,17.57
2022-12-03T18:57:40.234Z,18.27
2022-12-03T19:00:13.282Z,19.10
2022-12-03T19:05:27.516Z,19.03
2022-12-03T19:07:55.534Z,18.63
2022-12-03T19:10:23.119Z,19.20
2022-12-03T19:12:49.799Z,18.50
2022-12-03T19:15:16.656Z,19.80
2022-12-03T19:17:48.193Z,18.27
2022-12-03T19:20:14.909Z,18.63
2022-12-03T19:22:41.518Z,18.57
2022-12-03T19:25:08.387Z,19.30
2022-12-03T19:27:35.137Z,18.97
2022-12-03T19:30:01.804Z,20.23
2022-12-03T19:32:28.448Z,19.37
2022-12-03T19:34:55.135Z,20.33
2022-12-03T19:37:21.713Z,19.07
2022-12-03T19:39:52.202Z,21.13
2022-12-03T19:42:19.156Z,19.77
2022-12-03T19:44:45.809Z,19.50
2022-12-03T19:47:12.436Z,19.77
2022-12-03T19:49:39.056Z,19.87
2022-12-03T19:52:05.668Z,21.73
2022-12-03T19:54:32.282Z,19.33
2022-12-03T19:56:58.827Z,20.23
2022-12-03T19:59:25.470Z,21.30
2022-12-03T20:01:52.175Z,19.10
2022-12-03T20:04:19.099Z,20.87
2022-12-03T20:06:45.712Z,21.67
2022-12-03T20:09:17.168Z,22.07
2022-12-03T20:11:45.931Z,20.60
2022-12-03T20:14:15.813Z,21.87
2022-12-03T20:16:43.791Z,21.90
2022-12-03T20:19:14.355Z,21.10
2022-12-03T20:21:41.843Z,20.03
2022-12-03T20:24:13.135Z,20.93
2022-12-03T20:26:40.251Z,21.20
2022-12-03T20:29:06.895Z,21.43
2022-12-03T20:31:33.637Z,21.10
2022-12-03T20:34:03.154Z,21.63
2022-12-03T20:36:31.484Z,20.90
2022-12-03T20:39:01.324Z,20.27
2022-12-03T20:41:28.401Z,20.80
2022-12-03T20:43:55.180Z,20.90
2022-12-03T20:46:25.453Z,19.97
2022-12-03T20:48:54.014Z,21.17
2022-12-03T20:51:23.429Z,20.97
2022-12-03T20:53:50.604Z,20.77
2022-12-03T20:56:22.930Z,21.57
2022-12-03T20:58:50.039Z,21.07
2022-12-03T21:01:19.965Z,21.80
2022-12-03T21:03:47.527Z,20.93
2022-12-03T21:06:15.064Z,20.23
2022-12-03T21:08:43.231Z,20.13
2022-12-03T21:11:12.545Z,20.77
2022-12-03T21:13:43.691Z,21.70
2022-12-03T21:16:14.728Z,23.27
2022-12-03T21:18:42.053Z,22.40
2022-12-03T21:21:11.520Z,22.03
2022-12-03T21:23:38.196Z,23.23
2022-12-03T21:26:11.268Z,22.37
2022-12-03T21:28:39.566Z,23.10
2022-12-03T21:31:08.965Z,23.07
2022-12-03T21:33:36.131Z,22.47
2022-12-03T21:36:03.882Z,22.67
2022-12-03T21:38:30.722Z,22.50
2022-12-03T21:40:58.203Z,24.03
2022-12-03T21:43:25.860Z,23.00
2022-12-03T21:45:52.734Z,23.53
2022-12-03T21:48:20.039Z,23.27
2022-12-03T21:50:56.968Z,22.37
2022-12-03T21:53:23.515Z,24.23
2022-12-03T21:55:50.066Z,24.20
2022-12-03T21:58:16.704Z,24.33
2022-12-03T22:00:43.352Z,24.70
2022-12-03T22:03:10.018Z,24.57
2022-12-03T22:05:38.326Z,25.87
2022-12-03T22:08:05.345Z,23.73
2022-12-03T22:10:31.991Z,25.73
2022-12-03T22:12:58.557Z,24.87
2022-12-03T22:15:25.226Z,23.40
2022-12-03T22:17:52.017Z,24.27
2022-12-03T22:20:18.787Z,22.80
2022-12-03T22:22:45.434Z,25.33
2022-12-03T22:25:40.697Z,23.80
2022-12-03T22:28:39.877Z,23.23
2022-12-03T22:31:07.757Z,24.00
2022-12-03T22:33:35.770Z,24.83
2022-12-03T22:36:05.697Z,24.87
2022-12-03T22:38:32.729Z,22.47
2022-12-03T22:40:59.765Z,24.10
2022-12-03T22:43:26.362Z,23.07
2022-12-03T22:45:54.660Z,25.43
2022-12-03T22:48:22.621Z,24.23
2022-12-03T22:50:51.281Z,23.60
2022-12-03T22:53:18.525Z,23.43
2022-12-03T22:55:45.158Z,24.17
2022-12-03T22:58:11.749Z,25.17
2022-12-03T23:00:40.532Z,22.90
2022-12-03T23:03:08.421Z,23.57
2022-12-03T23:05:38.384Z,23.23
2022-12-03T23:08:11.222Z,25.57
2022-12-03T23:10:40.972Z,24.63
2022-12-03T23:13:08.722Z,23.40
2022-12-03T23:15:35.530Z,25.53
2022-12-03T23:18:02.314Z,23.63
2022-12-03T23:20:29.452Z,24.87
2022-12-03T23:22:56.338Z,23.63
2022-12-03T23:25:23.036Z,24.70
2022-12-03T23:27:49.825Z,24.90
2022-12-03T23:30:24.073Z,23.60
2022-12-03T23:32:53.801Z,22.63
2022-12-03T23:35:20.434Z,23.63
2022-12-03T23:37:47.008Z,23.47
2022-12-03T23:40:14.209Z,23.73
2022-12-03T23:42:40.865Z,23.37
2022-12-03T23:45:08.120Z,24.60
2022-12-03T23:47:34.854Z,23.20
2022-12-03T23:50:01.499Z,24.10
2022-12-03T23:52:28.197Z,23.63
2022-12-03T23:54:54.864Z,23.40
2022-12-03T23:57:21.473Z,23.73
2022-12-03T23:59:48.817Z,25.20
